地図

経路データ

SID SEASON NUMBER BASIN SUBBASIN NAME ISO_TIME NATURE LAT LON WMO_WIND WMO_PRES WMO_AGENCY TRACK_TYPE DIST2LAND LANDFALL IFLAG USA_AGENCY USA_ATCF_ID USA_LAT USA_LON USA_RECORD USA_STATUS USA_WIND USA_PRES USA_SSHS USA_R34_NE USA_R34_SE USA_R34_SW USA_R34_NW USA_R50_NE USA_R50_SE USA_R50_SW USA_R50_NW USA_R64_NE USA_R64_SE USA_R64_SW USA_R64_NW USA_POCI USA_ROCI USA_RMW USA_EYE TOKYO_LAT TOKYO_LON TOKYO_GRADE TOKYO_WIND TOKYO_PRES TOKYO_R50_DIR TOKYO_R50_LONG TOKYO_R50_SHORT TOKYO_R30_DIR TOKYO_R30_LONG TOKYO_R30_SHORT TOKYO_LAND CMA_LAT CMA_LON CMA_CAT CMA_WIND CMA_PRES HKO_LAT HKO_LON HKO_CAT HKO_WIND HKO_PRES NEWDELHI_LAT NEWDELHI_LON NEWDELHI_GRADE NEWDELHI_WIND NEWDELHI_PRES NEWDELHI_CI NEWDELHI_DP NEWDELHI_POCI REUNION_LAT REUNION_LON REUNION_TYPE REUNION_WIND REUNION_PRES REUNION_TNUM REUNION_CI REUNION_RMW REUNION_R34_NE REUNION_R34_SE REUNION_R34_SW REUNION_R34_NW REUNION_R50_NE REUNION_R50_SE REUNION_R50_SW REUNION_R50_NW REUNION_R64_NE REUNION_R64_SE REUNION_R64_SW REUNION_R64_NW BOM_LAT BOM_LON BOM_TYPE BOM_WIND BOM_PRES BOM_TNUM BOM_CI BOM_RMW BOM_R34_NE BOM_R34_SE BOM_R34_SW BOM_R34_NW BOM_R50_NE BOM_R50_SE BOM_R50_SW BOM_R50_NW BOM_R64_NE BOM_R64_SE BOM_R64_SW BOM_R64_NW BOM_ROCI BOM_POCI BOM_EYE BOM_POS_METHOD BOM_PRES_METHOD NADI_LAT NADI_LON NADI_CAT NADI_WIND NADI_PRES WELLINGTON_LAT WELLINGTON_LON WELLINGTON_WIND WELLINGTON_PRES DS824_LAT DS824_LON DS824_STAGE DS824_WIND DS824_PRES TD9636_LAT TD9636_LON TD9636_STAGE TD9636_WIND TD9636_PRES TD9635_LAT TD9635_LON TD9635_WIND TD9635_PRES TD9635_ROCI NEUMANN_LAT NEUMANN_LON NEUMANN_CLASS NEUMANN_WIND NEUMANN_PRES MLC_LAT MLC_LON MLC_CLASS MLC_WIND MLC_PRES USA_GUST BOM_GUST BOM_GUST_PER REUNION_GUST REUNION_GUST_PER USA_SEAHGT USA_SEARAD_NE USA_SEARAD_SE USA_SEARAD_SW USA_SEARAD_NW STORM_SPEED STORM_DIR
1887252N16130 1887 43 WP MM NOT_NAMED 1887-09-08 16:00:00 NR 15.5000 129.700 main 585 548 __________O___ -1 15.5000 129.700 4 19 301
1887252N16130 1887 43 WP MM NOT_NAMED 1887-09-08 18:00:00 NR 15.8295 129.141 main 548 497 __________P___ -1 15.8295 129.141 4 19 301
1887252N16130 1887 43 WP MM NOT_NAMED 1887-09-08 21:00:00 NR 16.3112 128.317 main 497 464 __________P___ -1 16.3112 128.317 4 18 301
1887252N16130 1887 43 WP MM NOT_NAMED 1887-09-09 00:00:00 NR 16.7647 127.533 main 464 443 __________P___ -1 16.7647 127.533 4 17 301
1887252N16130 1887 43 WP MM NOT_NAMED 1887-09-09 03:00:00 NR 17.1752 126.818 main 447 437 __________P___ -1 17.1752 126.818 4 16 301
1887252N16130 1887 43 WP MM NOT_NAMED 1887-09-09 04:00:00 NR 17.3000 126.600 main 437 396 __________O___ -1 17.3000 126.600 4 14 301
1887252N16130 1887 43 WP MM NOT_NAMED 1887-09-09 06:00:00 NR 17.5303 126.197 main 396 351 __________P___ -1 17.5303 126.197 4 13 301
1887252N16130 1887 43 WP MM NOT_NAMED 1887-09-09 09:00:00 NR 17.8389 125.656 main 351 307 __________P___ -1 17.8389 125.656 4 12 301
1887252N16130 1887 43 WP MM NOT_NAMED 1887-09-09 12:00:00 NR 18.1228 125.159 main 307 253 __________P___ -1 18.1228 125.159 4 11 301
1887252N16130 1887 43 WP MM NOT_NAMED 1887-09-09 15:00:00 NR 18.4035 124.669 main 253 232 __________P___ -1 18.4035 124.669 4 11 301
1887252N16130 1887 43 WP MM NOT_NAMED 1887-09-09 16:00:00 NR 18.5000 124.500 main 232 192 __________O___ -1 18.5000 124.500 4 12 301
1887252N16130 1887 43 WP MM NOT_NAMED 1887-09-09 18:00:00 NR 18.7241 124.115 main 192 148 __________P___ -1 18.7241 124.115 4 13 302
1887252N16130 1887 43 WP MM NOT_NAMED 1887-09-09 21:00:00 NR 19.0669 123.525 main 148 124 __________P___ -1 19.0669 123.525 4 13 301
1887252N16130 1887 43 WP MM NOT_NAMED 1887-09-10 00:00:00 NR 19.4009 122.939 main 128 128 __________P___ -1 19.4009 122.939 4 13 301
1887252N16130 1887 43 WP MM NOT_NAMED 1887-09-10 03:00:00 NR 19.7072 122.378 main 145 145 __________P___ -1 19.7072 122.378 4 12 300
1887252N16130 1887 43 WP MM NOT_NAMED 1887-09-10 04:00:00 NR 19.8000 122.200 main 156 156 __________O___ -1 19.8000 122.200 4 11 297
1887252N16130 1887 43 WP MM NOT_NAMED 1887-09-10 06:00:00 NR 19.9561 121.865 main 175 170 __________P___ -1 19.9561 121.865 4 10 295
1887252N16130 1887 43 WP MM NOT_NAMED 1887-09-10 09:00:00 NR 20.1590 121.395 main 186 179 __________P___ -1 20.1590 121.395 4 9 294
1887252N16130 1887 43 WP MM NOT_NAMED 1887-09-10 12:00:00 NR 20.3440 120.956 main 179 156 __________P___ -1 20.3440 120.956 4 9 295
1887252N16130 1887 43 WP MM NOT_NAMED 1887-09-10 15:00:00 NR 20.5326 120.537 main 157 146 __________P___ -1 20.5326 120.537 4 9 296
1887252N16130 1887 43 WP MM NOT_NAMED 1887-09-10 16:00:00 NR 20.6000 120.400 main 148 140 __________O___ -1 20.6000 120.400 4 8 302
1887252N16130 1887 43 WP MM NOT_NAMED 1887-09-10 18:00:00 NR 20.7486 120.168 main 143 130 __________P___ -1 20.7486 120.168 4 8 306
1887252N16130 1887 43 WP MM NOT_NAMED 1887-09-10 21:00:00 NR 20.9845 119.834 main 137 136 __________P___ -1 20.9845 119.834 4 8 307
1887252N16130 1887 43 WP MM NOT_NAMED 1887-09-11 00:00:00 NR 21.2369 119.462 main 146 150 __________P___ -1 21.2369 119.462 4 9 304
1887252N16130 1887 43 WP MM NOT_NAMED 1887-09-11 03:00:00 NR 21.5064 118.990 main 174 174 __________P___ -1 21.5064 118.990 4 11 300
1887252N16130 1887 43 WP MM NOT_NAMED 1887-09-11 04:00:00 NR 21.6000 118.800 main 184 184 __________O___ -1 21.6000 118.800 4 14 298
1887252N16130 1887 43 WP MM NOT_NAMED 1887-09-11 06:00:00 NR 21.8261 118.341 main 220 129 __________P___ -1 21.8261 118.341 4 16 296
1887252N16130 1887 43 WP MM NOT_NAMED 1887-09-11 09:00:00 NR 22.1781 117.537 main 129 45 __________P___ -1 22.1781 117.537 4 17 293
1887252N16130 1887 43 WP MM NOT_NAMED 1887-09-11 12:00:00 NR 22.5008 116.643 main 45 0 __________P___ -1 22.5008 116.643 4 18 289
1887252N16130 1887 43 WP MM NOT_NAMED 1887-09-11 15:00:00 NR 22.7446 115.710 main 10 0 __________P___ -1 22.7446 115.710 4 18 285
1887252N16130 1887 43 WP MM NOT_NAMED 1887-09-11 16:00:00 NR 22.8000 115.400 main 0 0 __________O___ -1 22.8000 115.400 4 17 278
1887252N16130 1887 43 WP MM NOT_NAMED 1887-09-11 18:00:00 NR 22.8631 114.771 main 0 0 __________P___ -1 22.8631 114.771 4 17 273
1887252N16130 1887 43 WP MM NOT_NAMED 1887-09-11 21:00:00 NR 22.8698 113.821 main 0 0 __________P___ -1 22.8698 113.821 4 17 268
1887252N16130 1887 43 WP MM NOT_NAMED 1887-09-12 00:00:00 NR 22.7920 112.920 main 0 0 __________P___ -1 22.7920 112.920 4 16 262
1887252N16130 1887 43 WP MM NOT_NAMED 1887-09-12 03:00:00 NR 22.6546 112.129 main 0 0 __________P___ -1 22.6546 112.129 4 14 258
1887252N16130 1887 43 WP MM NOT_NAMED 1887-09-12 04:00:00 NR 22.6000 111.900 main 0 0 __________O___ -1 22.6000 111.900 4 12 255
1887252N16130 1887 43 WP MM NOT_NAMED 1887-09-12 06:00:00 NR 22.5068 111.517 main 0 0 __________P___ -1 22.5068 111.517 4 10 251
1887252N16130 1887 43 WP MM NOT_NAMED 1887-09-12 09:00:00 NR 22.3311 111.063 main 0 0 __________P___ -1 22.3311 111.063 4 8 243
1887252N16130 1887 43 WP MM NOT_NAMED 1887-09-12 12:00:00 NR 22.1206 110.707 main 0 0 __________P___ -1 22.1206 110.707 4 8 234
1887252N16130 1887 43 WP MM NOT_NAMED 1887-09-12 15:00:00 NR 21.8835 110.400 main 0 0 __________P___ -1 21.8835 110.400 4 7 230
1887252N16130 1887 43 WP MM NOT_NAMED 1887-09-12 16:00:00 NR 21.8000 110.300 main 0 0 __________O___ -1 21.8000 110.300 4 8 228
1887252N16130 1887 43 WP MM NOT_NAMED 1887-09-12 18:00:00 NR 21.6278 110.095 main 0 0 __________P___ -1 21.6278 110.095 4 8 228
1887252N16130 1887 43 WP MM NOT_NAMED 1887-09-12 21:00:00 NR 21.3586 109.775 main 10 0 __________P___ -1 21.3586 109.775 4 8 228
1887252N16130 1887 43 WP MM NOT_NAMED 1887-09-13 00:00:00 NR 21.0799 109.446 main 31 31 __________P___ -1 21.0799 109.446 4 8 228
1887252N16130 1887 43 WP MM NOT_NAMED 1887-09-13 03:00:00 NR 20.7954 109.112 main 62 62 __________P___ -1 20.7954 109.112 4 8 228
1887252N16130 1887 43 WP MM NOT_NAMED 1887-09-13 04:00:00 NR 20.7000 109.000 main 73 __________O___ -1 20.7000 109.000 7 9 228

デジタル台風データ・検索

IBTrACS Databaseについて

本データベースは、米国NOAAが公開する1842年以降の世界の熱帯低気圧のベストトラックデータアーカイブInternational Best Track Archive for Climate Stewardship (IBTrACS)を、ウェブで閲覧しやすい形式に変換したものです。

最終更新日:2021-12-08